Time;durP1;ratioP1;P1;durP2;ratioP2;P2;SDS_P1;SDS_P2;PMS_P1;PMS_P2;Temp;Humidity;BMP_temperature;BMP_pressure;BME280_temperature;BME280_humidity;BME280_pressure;Samples;Min_cycle;Max_cycle;Signal;HPM_P1;HPM_P2
2023/03/16 00:01:36;;;;;;;;;;;;;;;-0.75;72.64;101446.16;107383;1254;124600;-84
2023/03/16 00:04:04;;;;;;;;;;;;;;;-0.74;72.58;101449.00;107965;1254;59556;-84
2023/03/16 00:06:31;;;;;;;;;;;;;;;-0.72;72.61;101451.16;107860;1256;125080;-87
2023/03/16 00:09:02;;;;;;;;;;;;;;;-0.72;72.75;101454.78;107476;1254;73273;-84
2023/03/16 00:11:29;;;;;;;;;;;;;;;-0.71;72.53;101452.96;107388;1254;66844;-87
2023/03/16 00:14:03;;;;;;;;;;;;;;;-0.70;72.84;101456.67;107630;1253;124956;-87
2023/03/16 00:16:32;;;;;;;;;;;;;;;-0.71;72.73;101455.05;107867;1253;59629;-87
2023/03/16 00:19:06;;;;;;;;;;;;;;;-0.70;72.76;101455.63;108123;1254;124666;-84
2023/03/16 00:21:35;;;;;;;;;;;;;;;-0.70;72.77;101459.48;107548;1253;74681;-84
2023/03/16 00:24:11;;;;;;;;;;;;;;;-0.70;72.77;101461.39;107122;1254;123839;-86
2023/03/16 00:26:41;;;;;;;;;;;;;;;-0.70;73.01;101464.65;107166;1253;71053;-83
2023/03/16 00:29:10;;;;;;;;;;;;;;;-0.70;72.80;101461.31;107627;1254;59791;-88
2023/03/16 00:31:38;;;;;;;;;;;;;;;-0.72;72.73;101462.20;107528;1254;124659;-83
2023/03/16 00:34:05;;;;;;;;;;;;;;;-0.71;72.92;101462.30;107244;1253;75639;-84
2023/03/16 00:36:37;;;;;;;;;;;;;;;-0.71;72.89;101466.04;107487;1253;124962;-83
2023/03/16 00:42:28;;;;;;;;;;;;;;;-0.75;72.98;101465.94;107316;1254;125245;-83
2023/03/16 00:45:11;;;;;;;;;;;;;;;-0.76;72.93;101466.16;107599;1253;61215;-88
2023/03/16 00:47:38;;;;;;;;;;;;;;;-0.77;73.07;101465.77;107482;1254;74710;-83
2023/03/16 00:50:05;;;;;;;;;;;;;;;-0.79;72.96;101466.17;107338;1254;124946;-87
2023/03/16 00:52:41;;;;;;;;;;;;;;;-0.80;72.99;101467.11;107528;1256;71373;-84
2023/03/16 00:55:15;;;;;;;;;;;;;;;-0.82;73.06;101463.31;107689;1256;124693;-84
2023/03/16 00:57:42;;;;;;;;;;;;;;;-0.84;72.98;101459.88;107873;1253;61448;-83
2023/03/16 01:00:16;;;;;;;;;;;;;;;-0.86;73.03;101464.85;107309;1257;124914;-83
2023/03/16 01:02:48;;;;;;;;;;;;;;;-0.91;72.99;101458.45;107518;1254;65827;-83
2023/03/16 01:05:15;;;;;;;;;;;;;;;-0.92;73.27;101460.20;107576;1253;72762;-87
2023/03/16 01:07:48;;;;;;;;;;;;;;;-0.93;73.24;101465.30;107393;1255;125022;-87
2023/03/16 01:10:16;;;;;;;;;;;;;;;-0.93;73.18;101463.94;107835;1254;60299;-87
2023/03/16 01:13:02;;;;;;;;;;;;;;;-0.93;73.31;101467.88;107699;1254;124833;-87
2023/03/16 01:15:37;;;;;;;;;;;;;;;-0.93;73.49;101468.23;107534;1254;67048;-87
2023/03/16 01:18:12;;;;;;;;;;;;;;;-0.94;73.24;101468.83;107508;1254;125230;-83
2023/03/16 01:20:49;;;;;;;;;;;;;;;-0.98;73.30;101470.58;107691;1253;61008;-84
2023/03/16 01:23:16;;;;;;;;;;;;;;;-0.97;73.57;101475.46;107722;1260;59579;-84
2023/03/16 01:26:03;;;;;;;;;;;;;;;-0.98;73.46;101470.44;107421;1254;124679;-87
2023/03/16 01:28:39;;;;;;;;;;;;;;;-0.99;73.55;101468.30;107737;1254;66905;-87
2023/03/16 01:31:07;;;;;;;;;;;;;;;-0.99;73.56;101469.69;107808;1254;124871;-87
2023/03/16 01:33:35;;;;;;;;;;;;;;;-1.00;73.87;101466.17;108118;1254;60470;-84
2023/03/16 01:36:03;;;;;;;;;;;;;;;-0.99;73.81;101465.17;108098;1254;124898;-84
2023/03/16 01:38:30;;;;;;;;;;;;;;;-1.01;73.97;101466.24;108171;1254;74387;-84
2023/03/16 01:40:57;;;;;;;;;;;;;;;-1.02;73.68;101465.77;107803;1254;67350;-84
2023/03/16 01:43:31;;;;;;;;;;;;;;;-1.05;74.08;101463.87;107643;1254;123935;-83
2023/03/16 01:46:09;;;;;;;;;;;;;;;-1.02;74.18;101464.93;107448;1254;61464;-84
2023/03/16 01:48:56;;;;;;;;;;;;;;;-1.02;74.15;101468.58;107385;1254;124100;-84
2023/03/16 01:51:42;;;;;;;;;;;;;;;-1.02;74.35;101469.75;107385;1254;74819;-84
2023/03/16 01:54:29;;;;;;;;;;;;;;;-1.04;74.36;101470.44;107450;1253;124088;-84
2023/03/16 02:03:05;;;;;;;;;;;;;;;-1.13;74.44;101479.55;107568;1253;60802;-84
2023/03/16 02:05:44;;;;;;;;;;;;;;;-1.15;74.38;101481.25;107402;1254;74605;-85
2023/03/16 02:11:33;;;;;;;;;;;;;;;-1.21;74.55;101484.35;107864;1254;72075;-87
2023/03/16 02:14:01;;;;;;;;;;;;;;;-1.24;74.58;101488.61;107695;1254;124613;-88
2023/03/16 02:16:28;;;;;;;;;;;;;;;-1.27;74.53;101486.80;107911;1254;60281;-88
2023/03/16 02:18:56;;;;;;;;;;;;;;;-1.29;74.60;101488.31;107689;1254;124547;-88
2023/03/16 02:21:34;;;;;;;;;;;;;;;-1.31;74.84;101489.89;107672;1253;65582;-88
2023/03/16 02:24:02;;;;;;;;;;;;;;;-1.33;74.81;101491.45;107889;1253;70174;-88
2023/03/16 02:26:32;;;;;;;;;;;;;;;-1.36;74.99;101488.07;107461;1254;62323;-88
2023/03/16 02:29:30;;;;;;;;;;;;;;;-1.34;75.16;101491.54;107719;1253;60314;-88
2023/03/16 02:31:58;;;;;;;;;;;;;;;-1.37;74.99;101492.02;107789;1254;124124;-88
2023/03/16 02:34:28;;;;;;;;;;;;;;;-1.39;75.20;101489.14;107687;1254;65753;-88
2023/03/16 02:36:55;;;;;;;;;;;;;;;-1.40;75.17;101495.73;107588;1254;124107;-87
2023/03/16 02:39:23;;;;;;;;;;;;;;;-1.40;75.53;101491.58;107617;1255;60467;-88
2023/03/16 02:42:03;;;;;;;;;;;;;;;-1.41;75.36;101494.61;107504;1255;59254;-87
2023/03/16 02:44:35;;;;;;;;;;;;;;;-1.43;75.52;101493.73;107342;1256;73912;-87
2023/03/16 02:47:15;;;;;;;;;;;;;;;-1.44;75.69;101499.30;107450;1256;65608;-87
2023/03/16 02:49:51;;;;;;;;;;;;;;;-1.45;75.66;101502.14;107267;1256;124107;-87
2023/03/16 02:52:25;;;;;;;;;;;;;;;-1.47;75.68;101503.54;107792;1255;60302;-87
2023/03/16 02:54:56;;;;;;;;;;;;;;;-1.49;75.73;101502.68;107796;1256;124111;-86
2023/03/16 02:57:24;;;;;;;;;;;;;;;-1.51;75.73;101501.31;107910;1256;74769;-86
2023/03/16 03:00:00;;;;;;;;;;;;;;;-1.53;75.68;101499.88;107804;1256;67103;-86
2023/03/16 03:02:42;;;;;;;;;;;;;;;-1.57;75.68;101497.05;107584;1255;123878;-87
2023/03/16 03:05:10;;;;;;;;;;;;;;;-1.60;75.70;101498.30;107823;1256;61831;-87
2023/03/16 03:07:37;;;;;;;;;;;;;;;-1.62;75.90;101499.37;107633;1255;124226;-87
2023/03/16 03:10:12;;;;;;;;;;;;;;;-1.64;75.89;101499.14;107548;1256;73371;-87
2023/03/16 03:12:39;;;;;;;;;;;;;;;-1.66;75.87;101499.86;107630;1256;124412;-87
2023/03/16 03:15:07;;;;;;;;;;;;;;;-1.68;75.94;101500.72;107993;1256;70869;-87
2023/03/16 03:17:53;;;;;;;;;;;;;;;-1.69;75.98;101500.59;107666;1255;60172;-87
2023/03/16 03:20:20;;;;;;;;;;;;;;;-1.72;76.00;101496.02;107675;1256;124168;-87
2023/03/16 03:22:55;;;;;;;;;;;;;;;-1.76;75.98;101497.45;107895;1255;74428;-86
2023/03/16 03:28:37;;;;;;;;;;;;;;;-1.82;76.10;101495.09;107533;1255;72760;-88
2023/03/16 03:31:07;;;;;;;;;;;;;;;-1.83;76.03;101498.73;107130;1256;123523;-88
2023/03/16 03:33:48;;;;;;;;;;;;;;;-1.85;76.23;101504.45;107441;1256;62160;-83
2023/03/16 03:36:15;;;;;;;;;;;;;;;-1.86;76.25;101507.58;107140;1256;126185;-83
2023/03/16 03:38:43;;;;;;;;;;;;;;;-1.86;76.28;101506.69;107628;1256;67574;-82
2023/03/16 03:41:21;;;;;;;;;;;;;;;-1.87;76.35;101503.73;107633;1254;73527;-83
2023/03/16 03:44:00;;;;;;;;;;;;;;;-1.85;76.32;101503.89;107488;1254;125260;-82
2023/03/16 03:46:28;;;;;;;;;;;;;;;-1.84;76.43;101504.30;107523;1256;60219;-82
2023/03/16 03:49:00;;;;;;;;;;;;;;;-1.83;76.42;101501.83;107709;1256;125084;-83
2023/03/16 03:51:28;;;;;;;;;;;;;;;-1.84;76.30;101503.31;107493;1254;66313;-83
2023/03/16 03:53:55;;;;;;;;;;;;;;;-1.82;76.40;101508.27;107705;1254;71618;-83
2023/03/16 03:56:22;;;;;;;;;;;;;;;-1.82;76.44;101503.69;107815;1254;124713;-84
2023/03/16 03:58:49;;;;;;;;;;;;;;;-1.80;76.33;101503.31;108227;1254;59981;-83
2023/03/16 04:01:17;;;;;;;;;;;;;;;-1.77;76.50;101505.42;108009;1254;125099;-84
2023/03/16 04:03:44;;;;;;;;;;;;;;;-1.75;76.60;101504.79;107907;1254;68403;-84
2023/03/16 04:06:12;;;;;;;;;;;;;;;-1.73;76.57;101505.23;107991;1254;125339;-84
2023/03/16 04:08:39;;;;;;;;;;;;;;;-1.70;76.69;101501.91;107941;1254;59479;-84
2023/03/16 04:11:06;;;;;;;;;;;;;;;-1.65;76.84;101500.25;108050;1254;60359;-84
2023/03/16 04:13:34;;;;;;;;;;;;;;;-1.60;76.92;101494.33;107776;1255;124785;-84
2023/03/16 04:16:03;;;;;;;;;;;;;;;-1.53;77.04;101494.23;107869;1255;66080;-84
2023/03/16 04:18:41;;;;;;;;;;;;;;;-1.43;77.29;101500.20;107546;1254;124805;-84
2023/03/16 04:21:16;;;;;;;;;;;;;;;-1.33;77.41;101499.20;107595;1258;61747;-84
2023/03/16 04:23:43;;;;;;;;;;;;;;;-1.23;77.36;101504.04;107428;1254;61308;-84
2023/03/16 04:26:10;;;;;;;;;;;;;;;-1.15;77.21;101507.91;107418;1261;125272;-84
2023/03/16 04:28:37;;;;;;;;;;;;;;;-1.09;77.17;101503.92;107430;1254;67052;-84
2023/03/16 04:31:05;;;;;;;;;;;;;;;-1.05;77.07;101506.68;107611;1257;124608;-84
2023/03/16 04:33:33;;;;;;;;;;;;;;;-0.99;77.21;101503.22;107549;1254;61374;-84
2023/03/16 04:36:01;;;;;;;;;;;;;;;-0.95;77.18;101501.36;107694;1260;60351;-84
2023/03/16 04:38:29;;;;;;;;;;;;;;;-0.91;77.25;101501.98;107597;1256;124573;-84
2023/03/16 04:40:56;;;;;;;;;;;;;;;-0.88;77.10;101500.67;108360;1255;67021;-84
2023/03/16 04:43:33;;;;;;;;;;;;;;;-0.86;77.02;101501.94;108062;1256;124717;-84
2023/03/16 04:46:01;;;;;;;;;;;;;;;-0.86;76.88;101503.49;107903;1256;61102;-84
2023/03/16 04:48:31;;;;;;;;;;;;;;;-0.87;76.78;101500.83;107879;1255;125237;-84
2023/03/16 04:51:02;;;;;;;;;;;;;;;-0.88;76.74;101502.59;107692;1256;74748;-85
2023/03/16 04:53:30;;;;;;;;;;;;;;;-0.89;76.75;101499.39;107848;1255;67259;-83
2023/03/16 04:55:57;;;;;;;;;;;;;;;-0.89;76.85;101498.35;107786;1259;124633;-83
2023/03/16 04:58:25;;;;;;;;;;;;;;;-0.86;76.88;101504.32;107598;1256;59469;-84
2023/03/16 05:01:01;;;;;;;;;;;;;;;-0.82;76.85;101505.31;107242;1256;125181;-84
2023/03/16 05:03:34;;;;;;;;;;;;;;;-0.79;76.89;101509.91;107207;1256;74704;-85
2023/03/16 05:06:15;;;;;;;;;;;;;;;-0.76;76.89;101504.60;107201;1256;67058;-84
2023/03/16 05:08:46;;;;;;;;;;;;;;;-0.70;76.94;101504.29;107535;1255;72546;-85
2023/03/16 05:11:13;;;;;;;;;;;;;;;-0.64;76.98;101506.50;107483;1255;61369;-85
2023/03/16 05:13:42;;;;;;;;;;;;;;;-0.57;77.05;101503.80;107693;1257;124790;-84
2023/03/16 05:16:09;;;;;;;;;;;;;;;-0.50;76.83;101500.69;107838;1256;73411;-87
2023/03/16 05:18:43;;;;;;;;;;;;;;;-0.45;76.81;101501.63;107772;1256;124817;-88
2023/03/16 05:21:45;;;;;;;;;;;;;;;-0.41;76.77;101498.89;107786;1256;72340;-87
2023/03/16 05:24:12;;;;;;;;;;;;;;;-0.35;76.70;101497.95;107533;1256;125443;-83
2023/03/16 05:26:40;;;;;;;;;;;;;;;-0.31;76.68;101503.42;108038;1256;59998;-85
2023/03/16 05:29:07;;;;;;;;;;;;;;;-0.29;76.69;101504.78;107328;1258;74708;-91
2023/03/16 05:31:35;;;;;;;;;;;;;;;-0.26;76.59;101502.83;107532;1255;124683;-84
2023/03/16 05:34:11;;;;;;;;;;;;;;;-0.23;76.29;101502.17;108252;1255;73706;-89
2023/03/16 05:37:02;;;;;;;;;;;;;;;-0.18;76.58;101507.73;107602;1255;124757;-90
2023/03/16 05:39:31;;;;;;;;;;;;;;;-0.09;76.74;101513.83;107628;1257;61114;-90
2023/03/16 05:41:58;;;;;;;;;;;;;;;0.00;76.75;101510.61;107722;1256;73342;-89
2023/03/16 05:44:30;;;;;;;;;;;;;;;0.09;76.88;101514.55;107522;1256;123744;-91
2023/03/16 05:47:32;;;;;;;;;;;;;;;0.22;76.88;101515.79;107690;1255;72656;-93
2023/03/16 05:50:10;;;;;;;;;;;;;;;0.41;76.99;101518.41;107536;1256;123681;-92
2023/03/16 05:52:45;;;;;;;;;;;;;;;0.57;77.12;101518.98;107540;1256;59863;-92
2023/03/16 05:55:19;;;;;;;;;;;;;;;0.73;77.04;101519.70;107345;1256;123916;-91
2023/03/16 05:57:52;;;;;;;;;;;;;;;0.83;76.69;101520.98;107622;1255;67153;-90
2023/03/16 06:00:32;;;;;;;;;;;;;;;0.91;76.68;101516.59;107416;1256;124536;-93
2023/03/16 06:02:59;;;;;;;;;;;;;;;1.00;76.47;101516.92;107641;1256;61201;-92
2023/03/16 06:05:54;;;;;;;;;;;;;;;1.06;76.33;101517.33;107728;1255;61370;-93
2023/03/16 06:08:32;;;;;;;;;;;;;;;1.08;76.22;101520.64;107502;1256;123747;-93
2023/03/16 06:10:59;;;;;;;;;;;;;;;1.08;76.15;101520.46;107639;1256;67316;-87
2023/03/16 06:13:32;;;;;;;;;;;;;;;1.08;76.04;101517.15;107044;1255;124498;-86
2023/03/16 06:16:02;;;;;;;;;;;;;;;1.07;75.87;101516.58;107342;1255;60376;-94
2023/03/16 06:18:33;;;;;;;;;;;;;;;1.06;75.83;101522.21;107239;1256;124021;-93
2023/03/16 06:21:16;;;;;;;;;;;;;;;;;;;;;
2023/03/16 06:23:58;;;;;;;;;;;;;;;1.11;76.00;101531.88;107437;1257;67492;-93
2023/03/16 06:26:31;;;;;;;;;;;;;;;1.14;75.85;101530.75;107153;1256;124603;-94
2023/03/16 06:29:09;;;;;;;;;;;;;;;1.16;75.79;101533.17;107763;1256;59422;-94
2023/03/16 06:31:44;;;;;;;;;;;;;;;1.18;75.79;101533.48;107384;1256;124743;-94
2023/03/16 06:34:24;;;;;;;;;;;;;;;1.23;75.89;101535.05;107614;1256;72668;-94
2023/03/16 06:36:52;;;;;;;;;;;;;;;1.30;75.92;101538.21;107428;1255;124866;-94
2023/03/16 06:39:43;;;;;;;;;;;;;;;1.45;75.88;101541.89;107462;1257;72519;-93
2023/03/16 06:42:23;;;;;;;;;;;;;;;1.63;76.11;101539.76;107355;1255;124807;-88
2023/03/16 06:45:12;;;;;;;;;;;;;;;1.82;76.03;101541.30;107349;1255;60815;-92
2023/03/16 06:47:47;;;;;;;;;;;;;;;2.09;76.21;101543.25;107413;1256;74478;-92
2023/03/16 06:50:16;;;;;;;;;;;;;;;2.41;76.24;101545.17;106941;1256;124458;-92
2023/03/16 06:52:49;;;;;;;;;;;;;;;2.72;76.11;101543.20;107058;1257;71838;-92
2023/03/16 06:58:50;;;;;;;;;;;;;;;3.27;75.19;101535.61;107408;1259;61326;-92
2023/03/16 07:01:32;;;;;;;;;;;;;;;3.37;74.79;101539.23;107185;1259;124440;-92
2023/03/16 07:04:07;;;;;;;;;;;;;;;3.47;74.60;101539.91;107243;1258;65946;-92
2023/03/16 07:06:36;;;;;;;;;;;;;;;3.56;74.38;101542.93;107236;1259;124146;-92
2023/03/16 07:09:05;;;;;;;;;;;;;;;3.62;74.08;101545.59;107329;1265;61263;-92
2023/03/16 07:14:41;;;;;;;;;;;;;;;3.83;73.96;101549.70;107088;1259;76383;-85
2023/03/16 07:17:08;;;;;;;;;;;;;;;4.00;73.87;101556.38;107146;1260;65594;-85
2023/03/16 07:20:09;;;;;;;;;;;;;;;4.17;73.66;101555.67;107484;1258;124330;-85
2023/03/16 07:22:55;;;;;;;;;;;;;;;4.30;73.43;101558.13;107161;1259;61340;-85
2023/03/16 07:25:23;;;;;;;;;;;;;;;4.45;73.35;101555.08;107162;1256;123781;-85
2023/03/16 07:27:52;;;;;;;;;;;;;;;4.63;73.17;101557.35;107538;1256;74458;-85
2023/03/16 07:30:19;;;;;;;;;;;;;;;4.75;72.77;101559.86;107805;1257;123907;-85
2023/03/16 07:32:46;;;;;;;;;;;;;;;4.85;72.53;101558.72;107665;1256;71735;-85
2023/03/16 07:35:20;;;;;;;;;;;;;;;4.93;72.17;101563.00;107966;1255;59651;-85
2023/03/16 07:37:47;;;;;;;;;;;;;;;4.94;71.89;101562.42;107978;1258;124668;-85
2023/03/16 07:40:14;;;;;;;;;;;;;;;4.93;71.54;101569.95;108093;1257;73722;-86
2023/03/16 07:42:41;;;;;;;;;;;;;;;4.92;71.45;101569.91;107747;1256;124414;-85
2023/03/16 07:45:09;;;;;;;;;;;;;;;4.99;71.45;101573.30;107636;1255;71502;-86
2023/03/16 07:47:36;;;;;;;;;;;;;;;5.05;71.37;101571.07;107700;1256;61300;-85
2023/03/16 07:50:03;;;;;;;;;;;;;;;5.12;71.40;101568.84;107449;1255;124435;-85
2023/03/16 07:52:30;;;;;;;;;;;;;;;5.21;71.21;101573.60;107514;1255;73064;-85
2023/03/16 07:54:59;;;;;;;;;;;;;;;5.28;71.13;101577.84;107363;1256;125027;-85
2023/03/16 07:57:26;;;;;;;;;;;;;;;5.30;70.77;101579.70;107464;1257;72787;-84
2023/03/16 07:59:59;;;;;;;;;;;;;;;5.33;70.67;101575.84;107676;1256;61237;-85
2023/03/16 08:02:26;;;;;;;;;;;;;;;5.35;70.57;101579.28;107419;1256;123968;-85
2023/03/16 08:04:53;;;;;;;;;;;;;;;5.39;70.45;101580.04;107527;1257;74762;-85
2023/03/16 08:07:26;;;;;;;;;;;;;;;5.42;70.25;101581.10;107181;1256;123751;-84
2023/03/16 08:09:55;;;;;;;;;;;;;;;5.46;70.05;101584.11;107593;1256;72850;-85
2023/03/16 08:12:25;;;;;;;;;;;;;;;5.56;70.12;101580.85;107397;1256;124083;-85
2023/03/16 08:15:05;;;;;;;;;;;;;;;5.69;70.07;101581.48;107311;1255;60467;-84
2023/03/16 08:17:35;;;;;;;;;;;;;;;5.76;69.71;101579.91;107032;1260;74583;-84
2023/03/16 08:20:13;;;;;;;;;;;;;;;5.78;69.54;101579.17;107283;1255;123755;-85
2023/03/16 08:22:41;;;;;;;;;;;;;;;5.82;69.47;101583.26;107359;1255;71477;-85
2023/03/16 08:25:11;;;;;;;;;;;;;;;5.86;69.24;101580.71;107263;1257;123865;-86
2023/03/16 08:28:03;;;;;;;;;;;;;;;5.89;69.12;101584.67;107361;1257;60162;-85
2023/03/16 08:30:49;;;;;;;;;;;;;;;5.86;68.86;101584.52;107193;1259;123831;-85
2023/03/16 08:33:24;;;;;;;;;;;;;;;5.90;68.74;101586.66;107324;1256;65657;-85
2023/03/16 08:36:10;;;;;;;;;;;;;;;5.93;68.70;101589.98;107248;1256;70415;-85
2023/03/16 08:38:42;;;;;;;;;;;;;;;5.95;68.51;101596.25;107283;1257;123562;-85
2023/03/16 08:41:09;;;;;;;;;;;;;;;5.97;68.49;101601.56;107372;1257;61268;-86
2023/03/16 08:43:45;;;;;;;;;;;;;;;6.01;68.29;101603.36;107289;1256;123854;-85
2023/03/16 08:46:14;;;;;;;;;;;;;;;6.10;68.49;101604.56;107402;1260;65790;-86
2023/03/16 08:48:47;;;;;;;;;;;;;;;6.23;68.48;101612.95;107168;1256;123863;-85
2023/03/16 08:51:30;;;;;;;;;;;;;;;6.36;68.36;101612.48;107826;1257;61033;-85
2023/03/16 08:53:58;;;;;;;;;;;;;;;6.51;68.05;101615.88;107771;1255;59271;-86
2023/03/16 08:56:50;;;;;;;;;;;;;;;6.63;67.90;101621.10;107346;1255;123936;-85
2023/03/16 08:59:17;;;;;;;;;;;;;;;6.79;67.65;101624.56;107749;1256;65562;-86
2023/03/16 09:01:47;;;;;;;;;;;;;;;6.91;67.45;101627.51;107894;1257;124163;-85
2023/03/16 09:04:15;;;;;;;;;;;;;;;7.04;67.34;101630.11;107836;1257;59781;-85
2023/03/16 09:06:49;;;;;;;;;;;;;;;7.15;67.15;101630.14;107596;1257;124112;-85
2023/03/16 09:09:16;;;;;;;;;;;;;;;7.29;67.04;101631.93;107551;1256;73793;-86
2023/03/16 09:11:44;;;;;;;;;;;;;;;7.37;66.62;101635.86;107369;1256;67278;-86
2023/03/16 09:14:18;;;;;;;;;;;;;;;7.40;66.42;101638.48;107120;1255;123813;-86
2023/03/16 09:16:47;;;;;;;;;;;;;;;7.51;66.41;101644.77;107198;1256;61251;-86
2023/03/16 09:19:16;;;;;;;;;;;;;;;7.62;66.30;101647.60;107221;1257;123725;-87
2023/03/16 09:21:56;;;;;;;;;;;;;;;7.69;66.03;101650.08;107296;1256;74836;-86
2023/03/16 09:24:23;;;;;;;;;;;;;;;7.76;65.74;101652.52;107153;1257;124080;-86
2023/03/16 09:26:57;;;;;;;;;;;;;;;7.79;65.50;101654.63;107286;1257;70505;-86
2023/03/16 09:29:24;;;;;;;;;;;;;;;7.78;65.27;101658.39;107079;1256;61157;-86
2023/03/16 09:31:53;;;;;;;;;;;;;;;7.76;65.02;101659.33;107386;1255;124638;-86
2023/03/16 09:34:22;;;;;;;;;;;;;;;7.70;64.87;101659.54;107439;1256;73962;-86
2023/03/16 09:37:16;;;;;;;;;;;;;;;7.63;64.66;101661.82;107406;1256;124036;-93
2023/03/16 09:39:46;;;;;;;;;;;;;;;7.56;64.56;101666.90;107292;1258;276097;-92
2023/03/16 09:42:35;;;;;;;;;;;;;;;7.48;64.47;101675.05;108167;1254;61061;-93
2023/03/16 09:48:44;;;;;;;;;;;;;;;7.57;64.76;101680.02;107460;1257;123890;-93
2023/03/16 09:51:34;;;;;;;;;;;;;;;7.89;64.91;101680.08;107546;1254;66400;-93
2023/03/16 09:54:05;;;;;;;;;;;;;;;8.32;64.89;101678.75;107336;1255;71095;-94
2023/03/16 10:00:22;;;;;;;;;;;;;;;8.76;63.69;101675.08;107357;1262;61083;-94
2023/03/16 10:03:00;;;;;;;;;;;;;;;8.86;63.66;101675.93;107298;1257;73703;-93
2023/03/16 10:05:28;;;;;;;;;;;;;;;9.05;63.45;101677.65;107382;1258;67125;-87
2023/03/16 10:08:26;;;;;;;;;;;;;;;9.24;63.43;101682.73;107262;1257;124016;-87
2023/03/16 10:11:12;;;;;;;;;;;;;;;9.41;62.88;101684.58;107225;1257;61394;-87
2023/03/16 10:14:06;;;;;;;;;;;;;;;9.56;62.61;101685.74;107284;1261;124246;-87
2023/03/16 10:16:37;;;;;;;;;;;;;;;9.71;62.26;101690.98;107496;1257;72300;-87
2023/03/16 10:19:09;;;;;;;;;;;;;;;9.76;61.98;101696.77;106961;1257;124660;-86
2023/03/16 10:21:44;;;;;;;;;;;;;;;9.84;61.67;101698.52;107196;1257;72734;-87
2023/03/16 10:24:33;;;;;;;;;;;;;;;9.93;61.64;101697.16;107263;1257;61269;-87
2023/03/16 10:27:24;;;;;;;;;;;;;;;10.02;61.39;101698.58;107277;1257;61205;-87
2023/03/16 10:30:18;;;;;;;;;;;;;;;10.06;61.03;101704.54;107510;1257;73080;-86
2023/03/16 10:33:12;;;;;;;;;;;;;;;10.11;60.87;101705.45;107398;1254;123874;-86
2023/03/16 10:35:50;;;;;;;;;;;;;;;10.11;60.53;101704.23;107469;1254;72745;-85
2023/03/16 10:38:26;;;;;;;;;;;;;;;10.16;60.54;101708.28;107315;1260;124359;-86
2023/03/16 10:40:53;;;;;;;;;;;;;;;10.29;60.57;101706.03;107383;1254;60008;-85
2023/03/16 10:43:28;;;;;;;;;;;;;;;10.37;60.35;101708.48;107311;1259;124480;-86
2023/03/16 10:46:04;;;;;;;;;;;;;;;10.32;59.87;101713.02;107479;1254;66198;-85
2023/03/16 10:48:33;;;;;;;;;;;;;;;10.26;59.85;101717.46;107188;1254;124643;-86
2023/03/16 10:51:02;;;;;;;;;;;;;;;10.24;59.84;101718.30;107535;1259;62301;-85
2023/03/16 10:53:35;;;;;;;;;;;;;;;10.16;59.43;101721.64;107430;1254;61216;-85
2023/03/16 10:56:28;;;;;;;;;;;;;;;10.05;59.45;101728.17;107369;1254;123212;-92
2023/03/16 10:58:59;;;;;;;;;;;;;;;9.87;58.95;101734.08;107575;1254;67054;-92
2023/03/16 11:14:40;;;;;;;;;;;;;;;9.21;59.05;101745.48;107562;1254;123885;-93
2023/03/16 11:21:08;;;;;;;;;;;;;;;9.40;58.55;101752.30;107462;1257;123970;-93
2023/03/16 11:23:51;;;;;;;;;;;;;;;9.47;58.65;101754.57;107511;1257;61233;-93
2023/03/16 11:29:33;;;;;;;;;;;;;;;9.60;58.10;101755.83;107412;1257;67651;-86
2023/03/16 11:32:17;;;;;;;;;;;;;;;9.56;57.97;101757.04;107408;1262;123907;-87
2023/03/16 11:34:46;;;;;;;;;;;;;;;9.54;58.04;101761.36;107557;1257;61253;-86
2023/03/16 11:40:29;;;;;;;;;;;;;;;9.49;57.75;101760.58;107483;1258;74873;-85
2023/03/16 11:46:14;;;;;;;;;;;;;;;9.53;57.64;101765.33;107642;1260;72470;-85
2023/03/16 11:48:58;;;;;;;;;;;;;;;9.60;57.64;101762.30;107294;1258;124248;-86
2023/03/16 11:51:38;;;;;;;;;;;;;;;9.65;57.35;101758.71;107108;1262;61723;-86
2023/03/16 11:54:47;;;;;;;;;;;;;;;9.66;57.22;101757.50;107201;1257;74464;-86
2023/03/16 11:57:31;;;;;;;;;;;;;;;9.64;57.00;101760.19;107235;1257;65805;-85
2023/03/16 12:00:13;;;;;;;;;;;;;;;9.62;57.00;101760.14;107205;1257;71410;-86
2023/03/16 12:02:49;;;;;;;;;;;;;;;9.67;56.92;101760.16;107186;1263;124057;-86
2023/03/16 12:09:15;;;;;;;;;;;;;;;10.01;57.07;101758.15;107400;1259;124047;-92
2023/03/16 12:11:57;;;;;;;;;;;;;;;10.28;57.19;101756.88;107519;1254;68177;-93
2023/03/16 12:18:18;;;;;;;;;;;;;;;10.46;56.15;101760.10;107918;1256;61195;-92
2023/03/16 12:20:51;;;;;;;;;;;;;;;10.50;56.09;101762.52;107741;1254;125293;-92
2023/03/16 12:24:08;;;;;;;;;;;;;;;10.52;55.72;101762.98;108018;1254;74582;-93
2023/03/16 12:27:09;;;;;;;;;;;;;;;10.36;55.47;101766.36;107872;1254;124022;-92
2023/03/16 12:33:05;;;;;;;;;;;;;;;9.88;54.93;101769.70;108038;1254;124067;-92
2023/03/16 12:35:55;;;;;;;;;;;;;;;9.57;54.82;101776.56;107648;1259;59231;-93
2023/03/16 12:38:32;;;;;;;;;;;;;;;9.34;55.17;101778.47;107511;1260;124215;-92
2023/03/16 12:41:25;;;;;;;;;;;;;;;9.07;55.09;101794.01;107654;1260;65868;-92
2023/03/16 12:47:00;;;;;;;;;;;;;;;7.43;57.08;101821.09;107657;1259;59842;-92
2023/03/16 12:49:50;;;;;;;;;;;;;;;6.45;58.11;101836.47;107570;1259;124438;-93
2023/03/16 12:52:26;;;;;;;;;;;;;;;5.63;60.35;101843.48;107607;1265;73386;-91
2023/03/16 12:55:14;;;;;;;;;;;;;;;5.21;62.04;101844.14;107446;1261;123969;-92
2023/03/16 12:58:10;;;;;;;;;;;;;;;4.91;63.43;101849.88;107775;1260;71581;-91
2023/03/16 13:00:56;;;;;;;;;;;;;;;4.81;64.63;101846.10;107716;1260;61286;-92
2023/03/16 13:03:30;;;;;;;;;;;;;;;4.84;65.32;101853.26;107616;1260;60572;-91
2023/03/16 13:05:58;;;;;;;;;;;;;;;4.79;65.90;101858.35;107468;1260;74450;-91
2023/03/16 13:08:49;;;;;;;;;;;;;;;4.71;66.29;101865.27;107574;1261;124494;-93
2023/03/16 13:11:49;;;;;;;;;;;;;;;4.63;66.59;101865.63;107684;1261;71625;-92
2023/03/16 13:14:53;;;;;;;;;;;;;;;4.56;67.09;101871.73;107496;1260;125068;-93
2023/03/16 13:20:34;;;;;;;;;;;;;;;4.58;68.38;101883.52;107519;1258;123447;-86
2023/03/16 13:23:08;;;;;;;;;;;;;;;4.56;68.63;101887.19;107720;1258;66814;-86
2023/03/16 13:25:41;;;;;;;;;;;;;;;4.43;68.65;101896.42;107461;1257;124529;-87
2023/03/16 13:28:25;;;;;;;;;;;;;;;4.30;69.10;101898.30;107725;1255;61363;-86
2023/03/16 13:31:14;;;;;;;;;;;;;;;4.27;69.85;101905.45;107778;1256;59464;-87
2023/03/16 13:33:47;;;;;;;;;;;;;;;4.27;69.83;101907.34;107819;1256;73397;-85
2023/03/16 13:36:30;;;;;;;;;;;;;;;4.21;69.90;101900.33;107875;1256;68895;-93
2023/03/16 13:39:18;;;;;;;;;;;;;;;4.23;70.31;101899.37;107673;1254;124493;-92
2023/03/16 13:42:09;;;;;;;;;;;;;;;4.36;70.54;101902.38;107836;1254;60326;-92
2023/03/16 13:44:51;;;;;;;;;;;;;;;4.51;70.67;101905.10;108048;1254;124790;-86
2023/03/16 13:47:19;;;;;;;;;;;;;;;4.55;70.50;101906.58;108048;1254;74771;-87
2023/03/16 13:49:47;;;;;;;;;;;;;;;4.48;70.13;101904.08;107887;1254;124894;-93
2023/03/16 13:52:28;;;;;;;;;;;;;;;4.34;69.93;101906.94;107869;1254;71183;-92
2023/03/16 13:54:57;;;;;;;;;;;;;;;4.20;70.21;101903.89;107865;1254;59302;-92
2023/03/16 13:57:37;;;;;;;;;;;;;;;4.26;70.80;101907.48;108374;1254;123698;-91
2023/03/16 14:03:34;;;;;;;;;;;;;;;4.32;70.46;101915.83;108125;1254;67138;-86
2023/03/16 14:06:04;;;;;;;;;;;;;;;4.21;70.49;101919.23;108032;1254;72743;-86
2023/03/16 14:08:46;;;;;;;;;;;;;;;4.16;70.76;101920.30;107947;1254;125162;-86
2023/03/16 14:11:38;;;;;;;;;;;;;;;;;;;;;
2023/03/16 14:14:38;;;;;;;;;;;;;;;4.12;71.05;101923.77;107802;1258;72526;-87
2023/03/16 14:17:12;;;;;;;;;;;;;;;4.17;71.33;101922.05;107418;1254;65724;-85
2023/03/16 14:19:46;;;;;;;;;;;;;;;4.28;71.61;101925.13;107838;1254;71122;-84
2023/03/16 14:22:17;;;;;;;;;;;;;;;4.32;71.20;101924.36;108079;1254;59289;-83
2023/03/16 14:24:45;;;;;;;;;;;;;;;4.34;71.32;101924.83;107603;1254;59939;-84
2023/03/16 14:27:16;;;;;;;;;;;;;;;4.35;70.99;101922.48;107713;1254;124624;-84